To NAV CANADA Home Page Login to a new session Search on AWWS site Disclaimer Vers la page française équivalente Tips FAQ What's new on the site To the Forecasts and Observations / NOTAM section To "File a Flight Plan" website Publications and other links Update of the User's profile FIC Telephone Numbers My Weather Data Folder Route Weather Data Regional Weather Data Local Weather Data To the Forecasts and Observations / NOTAM section
Request Generated 06/30/2022 at 10:33:09 UTC . Weather information available at that time is displayed.

METAR/TAF

MONTREAL/PIERRE-ELLIOTT-TRUDEAU INTL/QC    

METAR CYUL 301000Z 00000KT 15SM FEW006 SCT060 BKN080 14/14 A3022 RMK SF1SC3AC1 SLP235=
METAR CYUL 300900Z 23006KT 15SM FEW006 SCT052 14/13 A3020 RMK SF2SC2 SLP229=
METAR CYUL 300800Z 30004KT 15SM SKC 14/13 A3018 RMK SLP222=
SPECI CYUL 300759Z 31003KT 15SM SKC 14/13 A3018 RMK SLP222=

TAF CYUL 300840Z 3009/0106 30005KT P6SM SKC PROB30 3009/3012 2SM BR
BKN004
FM301200 VRB03KT P6SM SKC
BECMG 3013/3015 18006KT
FM301800 20008KT P6SM SKC
FM302100 22012KT P6SM BKN110
FM010300 15009KT P6SM BKN150
BECMG 0104/0106 19009KT
RMK NXT FCST BY 301200Z=
Your time UTC time
Weather data provided by Environment Canada and NAV CANADA